createdAt,value
2018-08-09T00:00:25.169Z,100099.95
2018-08-09T00:02:56.065Z,100093.48
2018-08-09T00:05:26.704Z,100088.51
2018-08-09T00:07:57.456Z,100096.16
2018-08-09T00:10:28.056Z,100095.02
2018-08-09T00:12:58.769Z,100096.30
2018-08-09T00:15:29.480Z,100095.59
2018-08-09T00:18:00.267Z,100100.34
2018-08-09T00:20:30.944Z,100104.64
2018-08-09T00:23:01.744Z,100102.66
2018-08-09T00:25:32.376Z,100102.92
2018-08-09T00:28:03.185Z,100106.92
2018-08-09T00:30:33.981Z,100102.42
2018-08-09T00:33:05.013Z,100104.33
2018-08-09T00:35:35.713Z,100104.87
2018-08-09T00:38:06.497Z,100107.23
2018-08-09T00:40:37.770Z,100105.87
2018-08-09T00:43:08.517Z,100100.97
2018-08-09T00:45:39.173Z,100096.79
2018-08-09T00:48:10.163Z,100097.20
2018-08-09T00:50:40.768Z,100096.67
2018-08-09T00:53:11.292Z,100090.97
2018-08-09T00:55:41.936Z,100088.03
2018-08-09T00:58:12.806Z,100088.17
2018-08-09T01:00:43.408Z,100084.00
2018-08-09T01:03:14.196Z,100094.73
2018-08-09T01:05:44.769Z,100087.36
2018-08-09T01:08:15.500Z,100093.53
2018-08-09T01:10:46.240Z,100095.53
2018-08-09T01:13:17.086Z,100097.58
2018-08-09T01:15:47.813Z,100092.48
2018-08-09T01:18:18.553Z,100098.39
2018-08-09T01:20:49.241Z,100094.20
2018-08-09T01:23:20.202Z,100097.59
2018-08-09T01:25:50.900Z,100104.47
2018-08-09T01:28:21.533Z,100101.81
2018-08-09T01:30:52.161Z,100107.92
2018-08-09T01:33:22.936Z,100114.07
2018-08-09T01:35:53.596Z,100100.89
2018-08-09T01:38:24.496Z,100104.77
2018-08-09T01:40:55.216Z,100106.33
2018-08-09T01:43:42.123Z,100102.00
2018-08-09T01:46:12.661Z,100109.59
2018-08-09T01:48:43.480Z,100107.80
2018-08-09T01:51:14.045Z,100101.09
2018-08-09T01:53:44.742Z,100111.43
2018-08-09T01:56:15.307Z,100108.95
2018-08-09T01:58:46.185Z,100106.55
2018-08-09T02:01:16.834Z,100106.50
2018-08-09T02:03:47.520Z,100112.48
2018-08-09T02:06:18.951Z,100122.54
2018-08-09T02:08:50.115Z,100113.04
2018-08-09T02:11:20.841Z,100110.45
2018-08-09T02:13:51.673Z,100116.48
2018-08-09T02:16:22.357Z,100112.69
2018-08-09T02:18:53.509Z,100120.08
2018-08-09T02:21:23.877Z,100119.87
2018-08-09T02:23:54.699Z,100124.51
2018-08-09T02:26:25.457Z,100115.97
2018-08-09T02:28:56.132Z,100120.17
2018-08-09T02:31:26.719Z,100124.64
2018-08-09T02:33:57.516Z,100118.99
2018-08-09T02:36:28.172Z,100123.97
2018-08-09T02:38:59.100Z,100123.25
2018-08-09T02:41:29.645Z,100126.15
2018-08-09T02:44:00.682Z,100127.41
2018-08-09T02:46:31.505Z,100135.51
2018-08-09T02:49:02.103Z,100139.53
2018-08-09T02:51:32.740Z,100144.45
2018-08-09T02:54:03.492Z,100153.86
2018-08-09T02:56:34.097Z,100150.35
2018-08-09T02:59:04.797Z,100157.89
2018-08-09T03:01:35.472Z,100155.87
2018-08-09T03:04:06.025Z,100152.06
2018-08-09T03:06:36.787Z,100152.63
2018-08-09T03:09:12.613Z,100157.84
2018-08-09T03:11:44.067Z,100151.73
2018-08-09T03:14:14.917Z,100160.03
2018-08-09T03:16:45.676Z,100159.80
2018-08-09T03:19:16.769Z,100152.69
2018-08-09T03:21:47.404Z,100156.25
2018-08-09T03:24:18.242Z,100164.99
2018-08-09T03:26:48.852Z,100161.69
2018-08-09T03:29:19.673Z,100159.37
2018-08-09T03:31:50.325Z,100161.20
2018-08-09T03:34:21.140Z,100157.48
2018-08-09T03:36:51.776Z,100165.52
2018-08-09T03:39:22.529Z,100170.22
2018-08-09T03:41:53.048Z,100170.59
2018-08-09T03:44:23.937Z,100175.35
2018-08-09T03:46:54.752Z,100177.11
2018-08-09T03:49:26.009Z,100173.92
2018-08-09T03:51:56.609Z,100175.98
2018-08-09T03:54:27.301Z,100170.08
2018-08-09T03:56:57.884Z,100168.02
2018-08-09T03:59:28.677Z,100174.05
2018-08-09T04:01:59.361Z,100175.58
2018-08-09T04:04:30.237Z,100171.87
2018-08-09T04:07:00.852Z,100171.36
2018-08-09T04:09:32.079Z,100172.81
2018-08-09T04:12:02.828Z,100177.32
2018-08-09T04:14:33.638Z,100177.31
2018-08-09T04:17:08.376Z,100181.16
2018-08-09T04:19:39.281Z,100181.02
2018-08-09T04:22:09.796Z,100182.25
2018-08-09T04:24:41.090Z,100188.56
2018-08-09T04:27:11.668Z,100189.09
2018-08-09T04:29:42.326Z,100192.16
2018-08-09T04:32:12.982Z,100193.66
2018-08-09T04:34:43.752Z,100194.46
2018-08-09T04:37:14.422Z,100198.75
2018-08-09T04:39:45.055Z,100198.41
2018-08-09T04:42:15.685Z,100199.92
2018-08-09T04:44:46.365Z,100198.41
2018-08-09T04:47:16.998Z,100201.23
2018-08-09T04:49:47.925Z,100206.67
2018-08-09T04:52:18.628Z,100204.03
2018-08-09T04:54:49.257Z,100199.16
2018-08-09T04:57:20.046Z,100201.81
2018-08-09T04:59:50.904Z,100203.09
2018-08-09T05:02:21.513Z,100200.43
2018-08-09T05:04:52.500Z,100203.90
2018-08-09T05:07:23.169Z,100204.67
2018-08-09T05:09:53.964Z,100209.52
2018-08-09T05:12:24.640Z,100216.34
2018-08-09T05:14:55.552Z,100215.97
2018-08-09T05:17:26.017Z,100215.02
2018-08-09T05:19:56.796Z,100215.42
2018-08-09T05:22:27.413Z,100216.63
2018-08-09T05:24:58.110Z,100214.59
2018-08-09T05:27:28.965Z,100215.98
2018-08-09T05:29:59.712Z,100219.14
2018-08-09T05:32:30.785Z,100221.35
2018-08-09T05:35:01.453Z,100228.80
2018-08-09T05:37:32.081Z,100238.77
2018-08-09T05:40:02.771Z,100240.82
2018-08-09T05:42:33.398Z,100236.55
2018-08-09T05:45:04.153Z,100240.71
2018-08-09T05:47:34.810Z,100236.27
2018-08-09T05:50:06.201Z,100231.35
2018-08-09T05:52:36.889Z,100234.95
2018-08-09T05:55:07.857Z,100231.55
2018-08-09T05:57:38.385Z,100235.78
2018-08-09T06:00:09.592Z,100229.55
2018-08-09T06:02:40.388Z,100230.49
2018-08-09T06:05:11.128Z,100235.03
2018-08-09T06:07:41.865Z,100234.18
2018-08-09T06:10:12.637Z,100233.98
2018-08-09T06:12:43.485Z,100238.85
2018-08-09T06:15:14.358Z,100231.79
2018-08-09T06:17:45.006Z,100235.30
2018-08-09T06:20:15.709Z,100232.91
2018-08-09T06:22:46.320Z,100231.77
2018-08-09T06:25:17.226Z,100230.18
2018-08-09T06:27:47.769Z,100225.76
2018-08-09T06:30:18.654Z,100227.86
2018-08-09T06:32:49.313Z,100228.66
2018-08-09T06:35:20.114Z,100229.81
2018-08-09T06:37:50.867Z,100232.38
2018-08-09T06:40:21.480Z,100233.03
2018-08-09T06:42:52.230Z,100229.02
2018-08-09T06:45:22.959Z,100229.05
2018-08-09T06:47:53.803Z,100224.02
2018-08-09T06:50:24.693Z,100224.79
2018-08-09T06:52:55.427Z,100226.88
2018-08-09T06:55:25.980Z,100228.45
2018-08-09T06:57:56.601Z,100229.38
2018-08-09T07:00:27.344Z,100227.81
2018-08-09T07:02:58.097Z,100226.37
2018-08-09T07:05:28.866Z,100232.66
2018-08-09T07:07:59.560Z,100232.41
2018-08-09T07:10:30.415Z,100234.50
2018-08-09T07:13:01.190Z,100233.17
2018-08-09T07:15:32.000Z,100240.39
2018-08-09T07:18:02.672Z,100234.02
2018-08-09T07:20:34.397Z,100229.22
2018-08-09T07:23:04.960Z,100232.42
2018-08-09T07:25:35.551Z,100241.68
2018-08-09T07:28:07.152Z,100240.30
2018-08-09T07:30:37.910Z,100240.56
2018-08-09T07:33:08.589Z,100242.87
2018-08-09T07:35:39.384Z,100237.91
2018-08-09T07:38:10.158Z,100236.73
2018-08-09T07:40:41.252Z,100238.80
2018-08-09T07:43:11.987Z,100238.86
2018-08-09T07:45:42.678Z,100244.15
2018-08-09T07:48:13.296Z,100245.42
2018-08-09T07:50:44.109Z,100239.11
2018-08-09T07:53:14.776Z,100241.19
2018-08-09T07:55:45.674Z,100232.15
2018-08-09T07:58:16.393Z,100228.75
2018-08-09T08:00:47.175Z,100233.68
2018-08-09T08:03:17.801Z,100234.39
2018-08-09T08:05:48.716Z,100230.87
2018-08-09T08:08:19.460Z,100231.45
2018-08-09T08:10:50.344Z,100226.92
2018-08-09T08:13:21.421Z,100221.61
2018-08-09T08:15:52.217Z,100218.92
2018-08-09T08:18:22.882Z,100215.93
2018-08-09T08:20:53.637Z,100207.08
2018-08-09T08:23:24.321Z,100210.70
2018-08-09T08:25:55.174Z,100211.06
2018-08-09T08:28:25.896Z,100212.70
2018-08-09T08:30:56.569Z,100210.12
2018-08-09T08:33:27.226Z,100203.94
2018-08-09T08:35:58.081Z,100197.38
2018-08-09T08:38:28.735Z,100198.03
2018-08-09T08:40:59.381Z,100198.80
2018-08-09T08:43:30.033Z,100203.36
2018-08-09T08:46:01.074Z,100206.58
2018-08-09T08:48:31.740Z,100195.41
2018-08-09T08:51:02.601Z,100193.25
2018-08-09T08:53:33.242Z,100195.32
2018-08-09T08:56:04.383Z,100190.78
2018-08-09T08:58:35.140Z,100179.77
2018-08-09T09:01:05.712Z,100182.25
2018-08-09T09:03:36.340Z,100189.89
2018-08-09T09:06:07.307Z,100180.56
2018-08-09T09:08:38.090Z,100182.38
2018-08-09T09:11:08.909Z,100183.20
2018-08-09T09:13:39.518Z,100175.88
2018-08-09T09:16:10.160Z,100176.69
2018-08-09T09:18:40.832Z,100180.70
2018-08-09T09:21:11.516Z,100180.75
2018-08-09T09:23:42.253Z,100172.95
2018-08-09T09:26:13.117Z,100176.97
2018-08-09T09:28:43.760Z,100166.80
2018-08-09T09:31:14.521Z,100167.28
2018-08-09T09:33:45.148Z,100171.25
2018-08-09T09:36:15.894Z,100170.10
2018-08-09T09:38:46.476Z,100176.92
2018-08-09T09:41:17.201Z,100174.37
2018-08-09T09:43:47.749Z,100170.35
2018-08-09T09:46:18.580Z,100164.56
2018-08-09T09:48:49.237Z,100171.28
2018-08-09T09:51:20.130Z,100173.45
2018-08-09T09:53:50.893Z,100173.72
2018-08-09T09:56:21.625Z,100170.75
2018-08-09T09:58:52.252Z,100171.27
2018-08-09T10:01:27.881Z,100161.95
2018-08-09T10:03:58.450Z,100161.80
2018-08-09T10:06:29.530Z,100162.80
2018-08-09T10:09:00.241Z,100162.58
2018-08-09T10:11:31.479Z,100162.50
2018-08-09T10:14:02.397Z,100154.11
2018-08-09T10:16:34.022Z,100153.75
2018-08-09T10:19:04.797Z,100145.52
2018-08-09T10:21:35.502Z,100139.88
2018-08-09T10:24:06.213Z,100145.43
2018-08-09T10:26:37.341Z,100136.92
2018-08-09T10:29:07.925Z,100134.21
2018-08-09T10:31:38.563Z,100139.00
2018-08-09T10:34:09.237Z,100131.86
2018-08-09T10:36:40.233Z,100132.48
2018-08-09T10:39:12.486Z,100134.41
2018-08-09T10:41:43.469Z,100134.06
2018-08-09T10:44:14.277Z,100126.03
2018-08-09T10:46:45.896Z,100119.75
2018-08-09T10:49:16.548Z,100116.91
2018-08-09T10:51:47.197Z,100114.06
2018-08-09T10:54:17.950Z,100118.06
2018-08-09T10:56:48.932Z,100113.50
2018-08-09T10:59:19.460Z,100106.95
2018-08-09T11:01:50.165Z,100110.73
2018-08-09T11:04:20.789Z,100116.91
2018-08-09T11:06:51.475Z,100116.60
2018-08-09T11:09:22.145Z,100115.69
2018-08-09T11:11:52.867Z,100111.55
2018-08-09T11:14:23.548Z,100115.28
2018-08-09T11:16:54.457Z,100113.76
2018-08-09T11:19:25.160Z,100116.88
2018-08-09T11:21:56.488Z,100110.95
2018-08-09T11:24:27.021Z,100114.39
2018-08-09T11:26:57.800Z,100106.30
2018-08-09T11:29:28.522Z,100109.72
2018-08-09T11:31:59.600Z,100105.60
2018-08-09T11:34:30.373Z,100110.61
2018-08-09T11:37:01.249Z,100100.19
2018-08-09T11:39:31.969Z,100102.81
2018-08-09T11:42:02.722Z,100096.20
2018-08-09T11:44:33.277Z,100102.56
2018-08-09T11:47:04.490Z,100095.17
2018-08-09T11:49:35.093Z,100094.42
2018-08-09T11:52:05.849Z,100089.91
2018-08-09T11:54:36.566Z,100089.36
2018-08-09T11:57:07.453Z,100084.82
2018-08-09T11:59:38.224Z,100078.79
2018-08-09T12:02:08.885Z,100074.67
2018-08-09T12:04:39.599Z,100080.64
2018-08-09T12:07:10.857Z,100076.33
2018-08-09T12:09:41.446Z,100074.66
2018-08-09T12:12:12.279Z,100070.17
2018-08-09T12:14:43.160Z,100063.59
2018-08-09T12:17:14.029Z,100056.19
2018-08-09T12:19:44.834Z,100048.70
2018-08-09T12:22:15.568Z,100049.08
2018-08-09T12:24:46.405Z,100045.59
2018-08-09T12:27:17.323Z,100045.00
2018-08-09T12:29:48.152Z,100044.06
2018-08-09T12:32:18.912Z,100033.44
2018-08-09T12:34:49.725Z,100030.48
2018-08-09T12:37:20.633Z,100024.73
2018-08-09T12:39:51.293Z,100028.36
2018-08-09T12:42:22.305Z,100031.81
2018-08-09T12:44:53.333Z,100030.35
2018-08-09T12:47:24.128Z,100029.88
2018-08-09T12:49:54.774Z,100031.69
2018-08-09T12:52:25.512Z,100025.27
2018-08-09T12:54:56.368Z,100027.61
2018-08-09T12:57:27.441Z,100024.08
2018-08-09T12:59:58.159Z,100019.28
2018-08-09T13:02:28.816Z,100021.42
2018-08-09T13:04:59.514Z,100018.70
2018-08-09T13:07:30.232Z,100021.92
2018-08-09T13:10:01.247Z,100030.23
2018-08-09T13:12:32.247Z,100022.44
2018-08-09T13:15:03.033Z,100024.91
2018-08-09T13:17:33.819Z,100020.81
2018-08-09T13:20:04.620Z,100030.11
2018-08-09T13:22:36.085Z,100015.56
2018-08-09T13:25:07.568Z,100015.48
2018-08-09T13:27:38.401Z,100023.83
2018-08-09T13:30:13.387Z,100025.91
2018-08-09T13:32:45.160Z,100023.13
2018-08-09T13:35:15.868Z,100016.86
2018-08-09T13:37:46.587Z,100016.17
2018-08-09T13:40:17.337Z,100013.35
2018-08-09T13:42:48.490Z,100010.34
2018-08-09T13:45:18.860Z,100005.70
2018-08-09T13:47:49.697Z,100014.78
2018-08-09T13:50:20.463Z,100001.45
2018-08-09T13:52:51.566Z,100015.28
2018-08-09T13:55:22.207Z,100004.41
2018-08-09T13:57:52.625Z,100002.20
2018-08-09T14:00:23.119Z,100005.21
2018-08-09T14:02:53.776Z,99996.55
2018-08-09T14:05:24.252Z,100000.11
2018-08-09T14:07:54.993Z,100005.66
2018-08-09T14:10:25.324Z,100002.45
2018-08-09T14:12:55.900Z,99998.20
2018-08-09T14:15:26.241Z,100001.77
2018-08-09T14:17:57.958Z,100001.27
2018-08-09T14:20:29.079Z,99998.00
2018-08-09T14:23:00.644Z,100001.51
2018-08-09T14:25:31.882Z,99993.16
2018-08-09T14:28:03.227Z,99989.78
2018-08-09T14:30:34.710Z,99988.29
2018-08-09T14:33:06.126Z,99986.95
2018-08-09T14:35:37.778Z,99991.30
2018-08-09T14:38:09.122Z,99988.48
2018-08-09T14:40:40.284Z,99991.44
2018-08-09T14:43:11.723Z,99997.53
2018-08-09T14:45:43.179Z,99991.75
2018-08-09T14:48:14.199Z,99984.48
2018-08-09T14:50:45.079Z,99987.76
2018-08-09T14:53:16.180Z,99984.19
2018-08-09T14:55:47.658Z,99985.28
2018-08-09T14:58:19.310Z,99991.31
2018-08-09T15:00:50.336Z,99990.66
2018-08-09T15:03:21.362Z,99984.91
2018-08-09T15:05:52.418Z,99979.78
2018-08-09T15:08:23.973Z,99981.98
2018-08-09T15:10:55.040Z,99977.94
2018-08-09T15:13:26.580Z,99983.30
2018-08-09T15:15:57.615Z,99989.98
2018-08-09T15:18:29.182Z,99987.16
2018-08-09T15:21:00.333Z,99992.38
2018-08-09T15:23:31.789Z,99990.47
2018-08-09T15:26:02.814Z,99990.47
2018-08-09T15:28:33.751Z,99986.65
2018-08-09T15:31:04.590Z,99989.38
2018-08-09T15:33:35.542Z,99986.47
2018-08-09T15:36:07.182Z,99984.52
2018-08-09T15:38:38.791Z,99991.81
2018-08-09T15:41:09.897Z,99987.93
2018-08-09T15:43:40.962Z,99992.58
2018-08-09T15:46:11.904Z,99990.53
2018-08-09T15:49:45.367Z,99989.47
2018-08-09T15:52:15.928Z,99987.11
2018-08-09T15:54:46.982Z,99988.88
2018-08-09T15:57:17.666Z,99980.19
2018-08-09T15:59:48.664Z,99983.97
2018-08-09T16:02:19.389Z,99986.16
2018-08-09T16:04:50.201Z,99983.05
2018-08-09T16:07:20.829Z,99984.45
2018-08-09T16:09:51.505Z,99989.91
2018-08-09T16:12:21.973Z,99984.22
2018-08-09T16:14:52.676Z,99987.27
2018-08-09T16:17:23.057Z,99998.66
2018-08-09T16:19:53.400Z,100008.00
2018-08-09T16:22:24.325Z,100005.55
2018-08-09T16:24:54.926Z,100013.78
2018-08-09T16:27:25.360Z,100015.23
2018-08-09T16:29:55.762Z,100005.02
2018-08-09T16:32:26.617Z,100008.92
2018-08-09T16:34:56.924Z,100008.52
2018-08-09T16:37:27.394Z,100006.95
2018-08-09T16:39:57.686Z,100004.10
2018-08-09T16:42:28.397Z,100003.44
2018-08-09T16:44:58.842Z,99996.07
2018-08-09T16:47:29.249Z,100000.59
2018-08-09T16:49:59.640Z,99996.69
2018-08-09T16:52:30.200Z,100002.25
2018-08-09T16:55:00.635Z,100001.54
2018-08-09T16:57:31.201Z,100001.82
2018-08-09T17:00:01.533Z,100005.80
2018-08-09T17:02:32.004Z,100001.31
2018-08-09T17:05:02.509Z,100006.13
2018-08-09T17:07:33.149Z,100014.75
2018-08-09T17:10:04.007Z,100017.13
2018-08-09T17:12:34.841Z,100015.22
2018-08-09T17:15:08.614Z,100013.44
2018-08-09T17:17:39.376Z,100019.87
2018-08-09T17:20:17.007Z,100021.08
2018-08-09T17:22:47.664Z,100029.73
2018-08-09T17:25:18.347Z,100037.97
2018-08-09T17:27:50.132Z,100032.42
2018-08-09T17:30:23.092Z,100036.17
2018-08-09T17:32:53.644Z,100040.48
2018-08-09T17:35:24.045Z,100047.00
2018-08-09T17:37:55.766Z,100047.55
2018-08-09T17:40:30.474Z,100054.86
2018-08-09T17:43:02.269Z,100056.82
2018-08-09T17:45:35.001Z,100067.50
2018-08-09T17:48:06.900Z,100069.52
2018-08-09T17:50:37.251Z,100075.90
2018-08-09T17:53:09.993Z,100074.23
2018-08-09T17:55:40.466Z,100075.50
2018-08-09T17:58:11.056Z,100086.12
2018-08-09T18:00:41.805Z,100082.33
2018-08-09T18:03:13.344Z,100087.28
2018-08-09T18:05:43.649Z,100094.00
2018-08-09T18:08:14.284Z,100095.74
2018-08-09T18:10:44.989Z,100096.98
2018-08-09T18:13:15.735Z,100104.04
2018-08-09T18:15:46.340Z,100107.44
2018-08-09T18:18:17.032Z,100112.23
2018-08-09T18:20:47.373Z,100118.28
2018-08-09T18:23:18.156Z,100129.10
2018-08-09T18:25:48.900Z,100125.88
2018-08-09T18:28:19.835Z,100132.95
2018-08-09T18:30:50.526Z,100131.38
2018-08-09T18:33:21.361Z,100133.81
2018-08-09T18:35:51.898Z,100130.16
2018-08-09T18:38:22.766Z,100133.76
2018-08-09T18:40:53.513Z,100132.52
2018-08-09T18:43:24.377Z,100138.45
2018-08-09T18:45:54.858Z,100140.72
2018-08-09T18:48:25.754Z,100131.55
2018-08-09T18:50:56.304Z,100129.34
2018-08-09T18:53:26.942Z,100132.03
2018-08-09T18:55:57.676Z,100140.12
2018-08-09T18:58:28.601Z,100134.83
2018-08-09T19:00:59.325Z,100128.75
2018-08-09T19:03:29.982Z,100134.00
2018-08-09T19:06:01.269Z,100146.20
2018-08-09T19:08:32.340Z,100163.98
2018-08-09T19:11:02.891Z,100159.73
2018-08-09T19:13:33.666Z,100158.22
2018-08-09T19:16:04.300Z,100160.20
2018-08-09T19:18:36.009Z,100165.66
2018-08-09T19:21:06.301Z,100163.17
2018-08-09T19:23:37.329Z,100162.20
2018-08-09T19:26:07.661Z,100165.77
2018-08-09T19:28:38.073Z,100161.03
2018-08-09T19:31:11.515Z,100166.27
2018-08-09T19:33:42.176Z,100167.61
2018-08-09T19:36:12.573Z,100173.20
2018-08-09T19:38:43.223Z,100175.59
2018-08-09T19:41:14.141Z,100173.13
2018-08-09T19:43:44.769Z,100173.72
2018-08-09T19:46:15.786Z,100172.16
2018-08-09T19:48:46.650Z,100180.23
2018-08-09T19:51:17.349Z,100183.20
2018-08-09T19:53:47.864Z,100182.42
2018-08-09T19:56:18.831Z,100181.39
2018-08-09T19:58:49.506Z,100184.95
2018-08-09T20:01:20.303Z,100187.56
2018-08-09T20:03:50.941Z,100191.56
2018-08-09T20:06:23.555Z,100193.16
2018-08-09T20:08:53.895Z,100190.30
2018-08-09T20:11:24.258Z,100197.07
2018-08-09T20:13:54.626Z,100198.66
2018-08-09T20:16:24.977Z,100203.16
2018-08-09T20:18:55.411Z,100205.55
2018-08-09T20:21:25.737Z,100210.31
2018-08-09T20:23:56.114Z,100216.66
2018-08-09T20:26:26.711Z,100213.75
2018-08-09T20:28:57.041Z,100215.06
2018-08-09T20:31:27.454Z,100221.64
2018-08-09T20:33:57.920Z,100226.12
2018-08-09T20:36:28.460Z,100225.88
2018-08-09T20:38:58.970Z,100229.33
2018-08-09T20:41:30.443Z,100233.50
2018-08-09T20:44:01.024Z,100229.80
2018-08-09T20:46:31.794Z,100236.93
2018-08-09T20:49:02.446Z,100231.44
2018-08-09T20:51:33.221Z,100236.39
2018-08-09T20:54:03.890Z,100241.95
2018-08-09T20:56:34.528Z,100235.12
2018-08-09T20:59:05.136Z,100243.27
2018-08-09T21:01:35.820Z,100243.27
2018-08-09T21:04:07.209Z,100245.09
2018-08-09T21:06:37.961Z,100247.45
2018-08-09T21:09:11.152Z,100250.64
2018-08-09T21:11:42.780Z,100256.66
2018-08-09T21:14:13.449Z,100256.93
2018-08-09T21:16:44.100Z,100268.72
2018-08-09T21:19:14.709Z,100267.16
2018-08-09T21:21:45.308Z,100259.83
2018-08-09T21:24:16.034Z,100271.37
2018-08-09T21:26:47.266Z,100271.37
2018-08-09T21:29:17.912Z,100272.93
2018-08-09T21:31:48.786Z,100273.98
2018-08-09T21:34:19.368Z,100273.17
2018-08-09T21:36:50.253Z,100284.43
2018-08-09T21:39:20.852Z,100284.96
2018-08-09T21:41:51.423Z,100282.62
2018-08-09T21:44:22.154Z,100285.78
2018-08-09T21:46:53.023Z,100286.53
2018-08-09T21:49:23.653Z,100288.13
2018-08-09T21:51:54.544Z,100290.23
2018-08-09T21:54:25.150Z,100292.29
2018-08-09T21:56:55.926Z,100293.09
2018-08-09T21:59:26.598Z,100298.59
2018-08-09T22:01:57.305Z,100300.34
2018-08-09T22:04:27.973Z,100294.13
2018-08-09T22:07:03.652Z,100299.39
2018-08-09T22:09:39.432Z,100306.13
2018-08-09T22:12:14.942Z,100308.19
2018-08-09T22:14:50.742Z,100305.84
2018-08-09T22:19:29.872Z,100302.38
2018-08-09T22:22:09.606Z,100310.82
2018-08-09T22:24:40.684Z,100312.88
2018-08-09T22:27:11.869Z,100315.77
2018-08-09T22:29:42.564Z,100312.91
2018-08-09T22:32:13.569Z,100312.14
2018-08-09T22:34:44.302Z,100313.89
2018-08-09T22:37:15.020Z,100316.77
2018-08-09T22:39:45.621Z,100313.34
2018-08-09T22:42:15.956Z,100315.97
2018-08-09T22:44:46.553Z,100312.61
2018-08-09T22:47:16.817Z,100308.42
2018-08-09T22:49:47.509Z,100311.87
2018-08-09T22:52:17.795Z,100306.48
2018-08-09T22:54:48.153Z,100301.44
2018-08-09T22:57:18.392Z,100306.85
2018-08-09T22:59:49.060Z,100308.04
2018-08-09T23:02:19.512Z,100312.00
2018-08-09T23:04:49.937Z,100311.98
2018-08-09T23:07:20.353Z,100313.61
2018-08-09T23:09:50.700Z,100307.91
2018-08-09T23:12:21.037Z,100310.55
2018-08-09T23:14:51.344Z,100306.77
2018-08-09T23:17:21.584Z,100309.60
2018-08-09T23:19:52.049Z,100310.44
2018-08-09T23:23:03.852Z,100312.00
2018-08-09T23:25:34.600Z,100315.98
2018-08-09T23:28:05.330Z,100315.20
2018-08-09T23:30:36.034Z,100310.67
2018-08-09T23:33:06.424Z,100313.20
2018-08-09T23:35:36.716Z,100324.22
2018-08-09T23:38:07.601Z,100328.03
2018-08-09T23:40:38.189Z,100330.75
2018-08-09T23:43:09.124Z,100331.58
2018-08-09T23:45:39.388Z,100327.33
2018-08-09T23:48:10.069Z,100326.84
2018-08-09T23:50:40.661Z,100330.55
2018-08-09T23:53:11.369Z,100334.97
2018-08-09T23:55:41.944Z,100336.84
2018-08-09T23:58:12.832Z,100332.92
